Terminal Aerodrome Forecast
Issued by NWS

Home | Current Version | Previous Version | Text Only | Print | Product List | Glossary On
Versions: 1 2 3 4 5 6 7 8 9 10 11 12 13 14 15 16
000
FTUS43 KICT 172300
TAFHUT
TAF
KHUT 172322Z 1800/1824 VRB03KT P6SM SCT110
     FM180300 16004KT 4SM BR SKC
     FM181400 17010KT P6SM SCT025
     FM181700 17016G23KT P6SM SCT035=

USA.gov is the U.S. government's official web portal to all federal, state and local government web resources and services.